ADDS METAR Data INFO
IDs: Format: Raw Decoded Include TAF

Data at: 1102 UTC 20 Sep 2017

METAR for:K6B9 (Skaneateles Arpt, NY, US)
Text:K6B9 201055Z AUTO 00000KT 1 1/2SM BR CLR 14/14 A3003 RMK AO2 VIS 1/2V5
Temperature: 14.0°C ( 57°F)
Dewpoint: 14.0°C ( 57°F) [RH = 100%]
Pressure (altimeter):30.03 inches Hg (1017.0 mb)
Winds:calm
Visibility: 1.50 sm ( 2.41 km)
Ceiling:at least 12,000 feet AGL
Clouds:sky clear below 12,000 feet AGL
Weather:BR (mist)
QC Flag:automated observation with no human augmentation
Text:K6B9 201035Z AUTO 00000KT 3SM BR CLR 14/14 A3002 RMK AO2
Temperature: 14.0°C ( 57°F)
Dewpoint: 14.0°C ( 57°F) [RH = 100%]
Pressure (altimeter):30.02 inches Hg (1016.7 mb)
Winds:calm
Visibility: 3 sm ( 5 km)
Ceiling:at least 12,000 feet AGL
Clouds:sky clear below 12,000 feet AGL
Weather:BR (mist)
QC Flag:automated observation with no human augmentation
Text:K6B9 201015Z AUTO 00000KT 2 1/2SM BR CLR 14/14 A3002 RMK AO2 VIS 1 1/2V5
Temperature: 14.0°C ( 57°F)
Dewpoint: 14.0°C ( 57°F) [RH = 100%]
Pressure (altimeter):30.02 inches Hg (1016.7 mb)
Winds:calm
Visibility: 2.50 sm ( 4.02 km)
Ceiling:at least 12,000 feet AGL
Clouds:sky clear below 12,000 feet AGL
Weather:BR (mist)
QC Flag:automated observation with no human augmentation
Text:K6B9 200955Z AUTO 00000KT 8SM CLR 14/14 A3002 RMK AO2
Temperature: 14.0°C ( 57°F)
Dewpoint: 14.0°C ( 57°F) [RH = 100%]
Pressure (altimeter):30.02 inches Hg (1016.7 mb)
Winds:calm
Visibility: 8 sm ( 13 km)
Ceiling:at least 12,000 feet AGL
Clouds:sky clear below 12,000 feet AGL
QC Flag:automated observation with no human augmentation
Text:K6B9 200935Z AUTO 00000KT 7SM CLR 14/14 A3002 RMK AO2
Temperature: 14.0°C ( 57°F)
Dewpoint: 14.0°C ( 57°F) [RH = 100%]
Pressure (altimeter):30.02 inches Hg (1016.7 mb)
Winds:calm
Visibility: 7 sm ( 11 km)
Ceiling:at least 12,000 feet AGL
Clouds:sky clear below 12,000 feet AGL
QC Flag:automated observation with no human augmentation
Text:K6B9 200915Z AUTO 00000KT 6SM BR CLR 14/14 A3002 RMK AO2
Temperature: 14.0°C ( 57°F)
Dewpoint: 14.0°C ( 57°F) [RH = 100%]
Pressure (altimeter):30.02 inches Hg (1016.7 mb)
Winds:calm
Visibility: 6 sm ( 10 km)
Ceiling:at least 12,000 feet AGL
Clouds:sky clear below 12,000 feet AGL
Weather:BR (mist)
QC Flag:automated observation with no human augmentation
Text:K6B9 200855Z AUTO 00000KT 8SM CLR 14/14 A3002 RMK AO2
Temperature: 14.0°C ( 57°F)
Dewpoint: 14.0°C ( 57°F) [RH = 100%]
Pressure (altimeter):30.02 inches Hg (1016.7 mb)
Winds:calm
Visibility: 8 sm ( 13 km)
Ceiling:at least 12,000 feet AGL
Clouds:sky clear below 12,000 feet AGL
QC Flag:automated observation with no human augmentation
Text:K6B9 200835Z AUTO 00000KT 4SM BR CLR 15/15 A3002 RMK AO2
Temperature: 15.0°C ( 59°F)
Dewpoint: 15.0°C ( 59°F) [RH = 100%]
Pressure (altimeter):30.02 inches Hg (1016.7 mb)
Winds:calm
Visibility: 4 sm ( 6 km)
Ceiling:at least 12,000 feet AGL
Clouds:sky clear below 12,000 feet AGL
Weather:BR (mist)
QC Flag:automated observation with no human augmentation
Text:K6B9 200715Z AUTO 00000KT 1/2SM FG VV005 15/15 A3001 RMK AO2
Temperature: 15.0°C ( 59°F)
Dewpoint: 15.0°C ( 59°F) [RH = 100%]
Pressure (altimeter):30.01 inches Hg (1016.3 mb)
Winds:calm
Visibility: 0.50 sm ( 0.80 km)
Ceiling:indefinite ceiling with vertical visibility of 500 feet AGL
Clouds:obscured sky
Weather:FG (fog)
QC Flag:automated observation with no human augmentation
Text:K6B9 200655Z AUTO 00000KT 3/4SM BR VV005 15/15 A3001 RMK AO2
Temperature: 15.0°C ( 59°F)
Dewpoint: 15.0°C ( 59°F) [RH = 100%]
Pressure (altimeter):30.01 inches Hg (1016.3 mb)
Winds:calm
Visibility: 0.75 sm ( 1.21 km)
Ceiling:indefinite ceiling with vertical visibility of 500 feet AGL
Clouds:obscured sky
Weather:BR (mist)
QC Flag:automated observation with no human augmentation
Text:K6B9 200635Z AUTO 00000KT 9SM CLR 15/15 A3001 RMK AO2
Temperature: 15.0°C ( 59°F)
Dewpoint: 15.0°C ( 59°F) [RH = 100%]
Pressure (altimeter):30.01 inches Hg (1016.3 mb)
Winds:calm
Visibility: 9 sm ( 14 km)
Ceiling:at least 12,000 feet AGL
Clouds:sky clear below 12,000 feet AGL
QC Flag:automated observation with no human augmentation
Text:K6B9 200615Z AUTO 00000KT 5SM BR FEW034 FEW043 15/15 A3002 RMK AO2
Temperature: 15.0°C ( 59°F)
Dewpoint: 15.0°C ( 59°F) [RH = 100%]
Pressure (altimeter):30.02 inches Hg (1016.7 mb)
Winds:calm
Visibility: 5 sm ( 8 km)
Ceiling:at least 12,000 feet AGL
Clouds: few clouds at 3400 feet AGL, few clouds at 4300 feet AGL
Weather:BR (mist)
QC Flag:automated observation with no human augmentation
Text:K6B9 200555Z AUTO 00000KT 2 1/2SM BR FEW034 SCT043 15/15 A3002 RMK AO2 VIS 1V5
Temperature: 15.0°C ( 59°F)
Dewpoint: 15.0°C ( 59°F) [RH = 100%]
Pressure (altimeter):30.02 inches Hg (1016.7 mb)
Winds:calm
Visibility: 2.50 sm ( 4.02 km)
Ceiling:at least 12,000 feet AGL
Clouds: few clouds at 3400 feet AGL, scattered clouds at 4300 feet AGL
Weather:BR (mist)
QC Flag:automated observation with no human augmentation
Text:K6B9 200535Z AUTO 00000KT 6SM BR FEW045 15/15 A3002 RMK AO2
Temperature: 15.0°C ( 59°F)
Dewpoint: 15.0°C ( 59°F) [RH = 100%]
Pressure (altimeter):30.02 inches Hg (1016.7 mb)
Winds:calm
Visibility: 6 sm ( 10 km)
Ceiling:at least 12,000 feet AGL
Clouds: few clouds at 4500 feet AGL
Weather:BR (mist)
QC Flag:automated observation with no human augmentation
Text:K6B9 200515Z AUTO 00000KT 10SM CLR 15/15 A3002 RMK AO2
Temperature: 15.0°C ( 59°F)
Dewpoint: 15.0°C ( 59°F) [RH = 100%]
Pressure (altimeter):30.02 inches Hg (1016.7 mb)
Winds:calm
Visibility:10 or more sm (16+ km)
Ceiling:at least 12,000 feet AGL
Clouds:sky clear below 12,000 feet AGL
QC Flag:automated observation with no human augmentation
Text:K6B9 200455Z AUTO 00000KT 3SM BR CLR 15/15 A3002 RMK AO2
Temperature: 15.0°C ( 59°F)
Dewpoint: 15.0°C ( 59°F) [RH = 100%]
Pressure (altimeter):30.02 inches Hg (1016.7 mb)
Winds:calm
Visibility: 3 sm ( 5 km)
Ceiling:at least 12,000 feet AGL
Clouds:sky clear below 12,000 feet AGL
Weather:BR (mist)
QC Flag:automated observation with no human augmentation
Text:K6B9 200435Z AUTO 00000KT 6SM BR CLR 16/15 A3002 RMK AO2
Temperature: 16.0°C ( 61°F)
Dewpoint: 15.0°C ( 59°F) [RH = 94%]
Pressure (altimeter):30.02 inches Hg (1016.7 mb)
Winds:calm
Visibility: 6 sm ( 10 km)
Ceiling:at least 12,000 feet AGL
Clouds:sky clear below 12,000 feet AGL
Weather:BR (mist)
QC Flag:automated observation with no human augmentation
Text:K6B9 200415Z AUTO 00000KT 10SM CLR 15/15 A3002 RMK AO2
Temperature: 15.0°C ( 59°F)
Dewpoint: 15.0°C ( 59°F) [RH = 100%]
Pressure (altimeter):30.02 inches Hg (1016.7 mb)
Winds:calm
Visibility:10 or more sm (16+ km)
Ceiling:at least 12,000 feet AGL
Clouds:sky clear below 12,000 feet AGL
QC Flag:automated observation with no human augmentation
Text:K6B9 200355Z AUTO 00000KT 10SM CLR 16/15 A3002 RMK AO2
Temperature: 16.0°C ( 61°F)
Dewpoint: 15.0°C ( 59°F) [RH = 94%]
Pressure (altimeter):30.02 inches Hg (1016.7 mb)
Winds:calm
Visibility:10 or more sm (16+ km)
Ceiling:at least 12,000 feet AGL
Clouds:sky clear below 12,000 feet AGL
QC Flag:automated observation with no human augmentation
Text:K6B9 200335Z AUTO 00000KT 10SM CLR 16/15 A3002 RMK AO2
Temperature: 16.0°C ( 61°F)
Dewpoint: 15.0°C ( 59°F) [RH = 94%]
Pressure (altimeter):30.02 inches Hg (1016.7 mb)
Winds:calm
Visibility:10 or more sm (16+ km)
Ceiling:at least 12,000 feet AGL
Clouds:sky clear below 12,000 feet AGL
QC Flag:automated observation with no human augmentation
Text:K6B9 200315Z AUTO 00000KT 10SM CLR 16/16 A3002 RMK AO2
Temperature: 16.0°C ( 61°F)
Dewpoint: 16.0°C ( 61°F) [RH = 100%]
Pressure (altimeter):30.02 inches Hg (1016.7 mb)
Winds:calm
Visibility:10 or more sm (16+ km)
Ceiling:at least 12,000 feet AGL
Clouds:sky clear below 12,000 feet AGL
QC Flag:automated observation with no human augmentation
Text:K6B9 200255Z AUTO 00000KT 10SM CLR 17/16 A3003 RMK AO2
Temperature: 17.0°C ( 63°F)
Dewpoint: 16.0°C ( 61°F) [RH = 94%]
Pressure (altimeter):30.03 inches Hg (1017.0 mb)
Winds:calm
Visibility:10 or more sm (16+ km)
Ceiling:at least 12,000 feet AGL
Clouds:sky clear below 12,000 feet AGL
QC Flag:automated observation with no human augmentation
Text:K6B9 200235Z AUTO 00000KT 10SM CLR 17/16 A3003 RMK AO2
Temperature: 17.0°C ( 63°F)
Dewpoint: 16.0°C ( 61°F) [RH = 94%]
Pressure (altimeter):30.03 inches Hg (1017.0 mb)
Winds:calm
Visibility:10 or more sm (16+ km)
Ceiling:at least 12,000 feet AGL
Clouds:sky clear below 12,000 feet AGL
QC Flag:automated observation with no human augmentation
Text:K6B9 200215Z AUTO 00000KT 10SM CLR 16/15 A3002 RMK AO2
Temperature: 16.0°C ( 61°F)
Dewpoint: 15.0°C ( 59°F) [RH = 94%]
Pressure (altimeter):30.02 inches Hg (1016.7 mb)
Winds:calm
Visibility:10 or more sm (16+ km)
Ceiling:at least 12,000 feet AGL
Clouds:sky clear below 12,000 feet AGL
QC Flag:automated observation with no human augmentation
Text:K6B9 200155Z AUTO 00000KT 10SM CLR 17/16 A3002 RMK AO2
Temperature: 17.0°C ( 63°F)
Dewpoint: 16.0°C ( 61°F) [RH = 94%]
Pressure (altimeter):30.02 inches Hg (1016.7 mb)
Winds:calm
Visibility:10 or more sm (16+ km)
Ceiling:at least 12,000 feet AGL
Clouds:sky clear below 12,000 feet AGL
QC Flag:automated observation with no human augmentation
Text:K6B9 200135Z AUTO 00000KT 10SM CLR 17/16 A3002 RMK AO2
Temperature: 17.0°C ( 63°F)
Dewpoint: 16.0°C ( 61°F) [RH = 94%]
Pressure (altimeter):30.02 inches Hg (1016.7 mb)
Winds:calm
Visibility:10 or more sm (16+ km)
Ceiling:at least 12,000 feet AGL
Clouds:sky clear below 12,000 feet AGL
QC Flag:automated observation with no human augmentation
Text:K6B9 200115Z AUTO 00000KT 10SM CLR 17/16 A3003 RMK AO2
Temperature: 17.0°C ( 63°F)
Dewpoint: 16.0°C ( 61°F) [RH = 94%]
Pressure (altimeter):30.03 inches Hg (1017.0 mb)
Winds:calm
Visibility:10 or more sm (16+ km)
Ceiling:at least 12,000 feet AGL
Clouds:sky clear below 12,000 feet AGL
QC Flag:automated observation with no human augmentation
Text:K6B9 200055Z AUTO 00000KT 10SM CLR 17/16 A3003 RMK AO2
Temperature: 17.0°C ( 63°F)
Dewpoint: 16.0°C ( 61°F) [RH = 94%]
Pressure (altimeter):30.03 inches Hg (1017.0 mb)
Winds:calm
Visibility:10 or more sm (16+ km)
Ceiling:at least 12,000 feet AGL
Clouds:sky clear below 12,000 feet AGL
QC Flag:automated observation with no human augmentation
Text:K6B9 200035Z AUTO 00000KT 10SM CLR 18/16 A3002 RMK AO2
Temperature: 18.0°C ( 64°F)
Dewpoint: 16.0°C ( 61°F) [RH = 88%]
Pressure (altimeter):30.02 inches Hg (1016.7 mb)
Winds:calm
Visibility:10 or more sm (16+ km)
Ceiling:at least 12,000 feet AGL
Clouds:sky clear below 12,000 feet AGL
QC Flag:automated observation with no human augmentation
Text:K6B9 200015Z AUTO 00000KT 10SM CLR 18/17 A3002 RMK AO2
Temperature: 18.0°C ( 64°F)
Dewpoint: 17.0°C ( 63°F) [RH = 94%]
Pressure (altimeter):30.02 inches Hg (1016.7 mb)
Winds:calm
Visibility:10 or more sm (16+ km)
Ceiling:at least 12,000 feet AGL
Clouds:sky clear below 12,000 feet AGL
QC Flag:automated observation with no human augmentation
Text:K6B9 192355Z AUTO 00000KT 10SM CLR 19/17 A3001 RMK AO2
Temperature: 19.0°C ( 66°F)
Dewpoint: 17.0°C ( 63°F) [RH = 88%]
Pressure (altimeter):30.01 inches Hg (1016.3 mb)
Winds:calm
Visibility:10 or more sm (16+ km)
Ceiling:at least 12,000 feet AGL
Clouds:sky clear below 12,000 feet AGL
QC Flag:automated observation with no human augmentation
Text:K6B9 192335Z AUTO 00000KT 10SM CLR 20/17 A3001 RMK AO2
Temperature: 20.0°C ( 68°F)
Dewpoint: 17.0°C ( 63°F) [RH = 83%]
Pressure (altimeter):30.01 inches Hg (1016.3 mb)
Winds:calm
Visibility:10 or more sm (16+ km)
Ceiling:at least 12,000 feet AGL
Clouds:sky clear below 12,000 feet AGL
QC Flag:automated observation with no human augmentation
Text:K6B9 192315Z AUTO 00000KT 10SM CLR 22/16 A3001 RMK AO2
Temperature: 22.0°C ( 72°F)
Dewpoint: 16.0°C ( 61°F) [RH = 69%]
Pressure (altimeter):30.01 inches Hg (1016.3 mb)
Winds:calm
Visibility:10 or more sm (16+ km)
Ceiling:at least 12,000 feet AGL
Clouds:sky clear below 12,000 feet AGL
QC Flag:automated observation with no human augmentation